Time;durP1;ratioP1;P1;durP2;ratioP2;P2;SDS_P1;SDS_P2;PMS_P1;PMS_P2;Temp;Humidity;BMP_temperature;BMP_pressure;BME280_temperature;BME280_humidity;BME280_pressure;Samples;Min_cycle;Max_cycle;Signal;HPM_P1;HPM_P2
2022/06/13 00:02:05;;;;;;;5.90;1.98;;;15.70;94.90;;;;;;5063289;28;20056;-82
2022/06/13 00:04:31;;;;;;;7.30;1.83;;;15.70;94.90;;;;;;5075850;28;20048;-82
2022/06/13 00:06:56;;;;;;;2.75;1.20;;;15.70;95.00;;;;;;5057806;28;20098;-81
2022/06/13 00:09:22;;;;;;;3.13;2.10;;;15.60;95.00;;;;;;5062345;28;20462;-82
2022/06/13 00:11:48;;;;;;;7.13;1.70;;;15.50;95.10;;;;;;5077596;28;20033;-81
2022/06/13 00:14:14;;;;;;;8.82;1.98;;;15.50;95.30;;;;;;5063025;28;20051;-81
2022/06/13 00:16:40;;;;;;;6.35;2.60;;;15.40;95.40;;;;;;5061604;28;20208;-81
2022/06/13 00:19:05;;;;;;;4.88;1.80;;;15.30;95.50;;;;;;5079318;28;20231;-81
2022/06/13 00:21:34;;;;;;;4.50;1.77;;;15.30;95.70;;;;;;5059456;28;20114;-82
2022/06/13 00:24:01;;;;;;;6.60;1.90;;;15.30;95.80;;;;;;5059761;28;20132;-81
2022/06/13 00:26:30;;;;;;;4.90;2.33;;;15.30;95.80;;;;;;5060295;28;20067;-81
2022/06/13 00:28:56;;;;;;;4.32;1.73;;;15.30;95.80;;;;;;5060284;28;20156;-81
2022/06/13 00:31:23;;;;;;;2.78;1.17;;;15.40;95.90;;;;;;5057604;28;20530;-81
2022/06/13 00:33:49;;;;;;;6.47;1.80;;;15.30;95.90;;;;;;5060146;28;20137;-81
2022/06/13 00:36:16;;;;;;;6.97;1.70;;;15.40;96.00;;;;;;5059481;28;20041;-81
2022/06/13 00:38:42;;;;;;;7.82;2.38;;;15.30;96.00;;;;;;5060609;28;20917;-81
2022/06/13 00:41:14;;;;;;;7.45;1.70;;;15.30;96.10;;;;;;5055999;28;20321;-81
2022/06/13 00:43:42;;;;;;;4.63;2.53;;;15.30;96.20;;;;;;5061674;28;20076;-81
2022/06/13 00:46:21;;;;;;;4.75;2.22;;;15.20;96.20;;;;;;5060732;28;20072;-81
2022/06/13 00:48:50;;;;;;;5.63;2.22;;;15.20;96.30;;;;;;5059091;28;20123;-82
2022/06/13 00:51:17;;;;;;;5.00;2.13;;;15.20;96.30;;;;;;5062314;28;20040;-81
2022/06/13 00:53:43;;;;;;;6.20;2.03;;;15.20;96.40;;;;;;5072538;28;20079;-81
2022/06/13 00:56:16;;;;;;;3.72;1.88;;;15.20;96.40;;;;;;5060052;28;20048;-82
2022/06/13 00:58:53;;;;;;;8.15;2.10;;;15.20;96.50;;;;;;5076842;28;20040;-83
2022/06/13 01:01:21;;;;;;;4.95;1.83;;;15.20;96.60;;;;;;5064215;28;20043;-80
2022/06/13 01:03:47;;;;;;;5.88;1.90;;;15.20;96.60;;;;;;5060488;28;21209;-81
2022/06/13 01:06:13;;;;;;;10.10;2.17;;;15.20;96.70;;;;;;5061856;28;20048;-81
2022/06/13 01:08:40;;;;;;;4.13;2.63;;;15.10;96.80;;;;;;5058951;28;20549;-81
2022/06/13 01:11:17;;;;;;;3.10;2.35;;;15.10;96.80;;;;;;5077245;28;20095;-81
2022/06/13 01:14:00;;;;;;;3.53;1.77;;;15.10;96.90;;;;;;5096669;28;20044;-81
2022/06/13 01:16:44;;;;;;;5.63;2.10;;;15.10;97.00;;;;;;5084660;28;20051;-81
2022/06/13 01:19:44;;;;;;;4.63;2.35;;;15.10;97.00;;;;;;5087361;28;20052;-81
2022/06/13 01:22:34;;;;;;;4.07;1.85;;;15.10;97.10;;;;;;5090020;28;20091;-81
2022/06/13 01:25:38;;;;;;;8.02;4.30;;;15.10;97.10;;;;;;5073709;28;20045;-82
2022/06/13 01:28:25;;;;;;;4.22;1.85;;;15.00;97.20;;;;;;5047862;28;20049;-81
2022/06/13 01:31:12;;;;;;;11.57;2.00;;;15.00;97.20;;;;;;5067549;28;20040;-81
2022/06/13 01:33:54;;;;;;;4.68;2.28;;;15.00;97.30;;;;;;5066617;28;20044;-81
2022/06/13 01:36:37;;;;;;;4.38;2.22;;;15.00;97.30;;;;;;5065368;28;20818;-81
2022/06/13 01:39:25;;;;;;;4.07;1.80;;;14.90;97.50;;;;;;5065191;28;20186;-82
2022/06/13 01:42:00;;;;;;;4.50;1.88;;;14.90;97.50;;;;;;5064259;28;20579;-81
2022/06/13 01:44:47;;;;;;;5.18;3.00;;;14.90;97.60;;;;;;5082688;28;20095;-81
2022/06/13 01:47:17;;;;;;;3.35;1.55;;;14.90;97.70;;;;;;5065940;28;20151;-82
2022/06/13 01:49:48;;;;;;;6.25;1.80;;;14.90;97.70;;;;;;5079629;28;20525;-80
2022/06/13 01:52:25;;;;;;;5.63;2.42;;;14.80;97.80;;;;;;5064293;28;20051;-82
2022/06/13 01:54:58;;;;;;;8.18;3.00;;;14.80;97.90;;;;;;5078309;28;20052;-82
2022/06/13 01:57:43;;;;;;;8.63;2.47;;;14.80;97.90;;;;;;5064861;28;20040;-81
2022/06/13 02:00:17;;;;;;;3.38;1.70;;;14.80;98.10;;;;;;5063637;28;20065;-82
2022/06/13 02:02:43;;;;;;;9.68;2.33;;;14.80;98.10;;;;;;5081630;28;20041;-79
2022/06/13 02:05:09;;;;;;;4.68;2.08;;;14.80;98.20;;;;;;5062812;28;20036;-81
2022/06/13 02:07:41;;;;;;;7.45;1.98;;;14.80;98.20;;;;;;5067773;28;20041;-82
2022/06/13 02:10:12;;;;;;;4.43;1.80;;;14.80;98.40;;;;;;5082196;28;20155;-82
2022/06/13 02:12:41;;;;;;;5.95;2.40;;;14.80;98.40;;;;;;5066882;28;20048;-81
2022/06/13 02:15:13;;;;;;;6.88;2.03;;;14.70;98.50;;;;;;5081283;28;20048;-81
2022/06/13 02:17:43;;;;;;;;;;;14.70;98.60;;;;;;5068236;28;20171;-80
2022/06/13 02:20:24;;;;;;;6.93;2.38;;;14.70;98.60;;;;;;5065677;28;19921;-81
2022/06/13 02:22:54;;;;;;;4.78;2.03;;;14.60;98.70;;;;;;5080094;28;20090;-81
2022/06/13 02:25:35;;;;;;;3.90;2.25;;;14.70;98.80;;;;;;5064867;28;20036;-81
2022/06/13 02:28:08;;;;;;;5.37;2.03;;;14.70;98.90;;;;;;5066955;28;20434;-81
2022/06/13 02:30:40;;;;;;;6.88;2.78;;;14.70;98.90;;;;;;5064378;28;20037;-81
2022/06/13 02:33:27;;;;;;;5.57;2.10;;;14.50;98.90;;;;;;5067643;28;20045;-81
2022/06/13 02:35:59;;;;;;;4.10;2.00;;;14.70;99.10;;;;;;5063068;28;20617;-81
2022/06/13 02:38:37;;;;;;;7.72;2.03;;;14.60;99.10;;;;;;5069083;28;20049;-80
2022/06/13 02:41:07;;;;;;;10.55;2.70;;;14.60;99.20;;;;;;5081665;28;20155;-80
2022/06/13 02:44:07;;;;;;;4.15;2.28;;;14.60;99.30;;;;;;5082501;28;20053;-80
2022/06/13 02:46:48;;;;;;;10.82;3.53;;;14.60;99.50;;;;;;5068998;28;20057;-80
2022/06/13 02:49:27;;;;;;;9.85;2.47;;;14.60;99.50;;;;;;5080355;28;20140;-80
2022/06/13 02:52:39;;;;;;;15.45;2.67;;;14.50;99.50;;;;;;5081465;28;20078;-80
2022/06/13 02:55:10;;;;;;;7.20;1.63;;;14.60;99.70;;;;;;5077290;28;20139;-80
2022/06/13 02:57:39;;;;;;;6.75;1.75;;;14.60;99.70;;;;;;5080502;28;20089;-80
2022/06/13 03:00:40;;;;;;;4.47;2.70;;;14.50;99.80;;;;;;5064327;28;20045;-81
2022/06/13 03:03:39;;;;;;;5.63;1.65;;;14.50;99.90;;;;;;5080362;28;20041;-81
2022/06/13 03:06:19;;;;;;;9.55;2.38;;;14.50;99.90;;;;;;5077674;28;20049;-80
2022/06/13 03:09:15;;;;;;;5.95;2.85;;;14.50;99.90;;;;;;5079415;28;20037;-80
2022/06/13 03:11:49;;;;;;;6.75;2.17;;;14.50;99.90;;;;;;5081161;28;20037;-80
2022/06/13 03:14:20;;;;;;;11.93;3.10;;;14.50;99.90;;;;;;5079180;28;20059;-81
2022/06/13 03:16:52;;;;;;;7.13;4.00;;;14.40;99.90;;;;;;5080597;28;20041;-81
2022/06/13 03:19:22;;;;;;;4.00;2.22;;;14.40;99.90;;;;;;5065649;27;20891;-81
2022/06/13 03:21:52;;;;;;;5.72;2.28;;;14.40;99.90;;;;;;5064949;28;20772;-81
2022/06/13 03:24:45;;;;;;;8.85;2.00;;;14.30;99.90;;;;;;5064097;28;20046;-81
2022/06/13 03:27:17;;;;;;;;;;;14.30;99.90;;;;;;5063847;28;20037;-81
2022/06/13 03:29:54;;;;;;;4.18;1.92;;;14.30;99.90;;;;;;5078693;27;19970;-81
2022/06/13 03:32:27;;;;;;;7.13;2.63;;;14.30;99.90;;;;;;5061874;28;20048;-81
2022/06/13 03:34:59;;;;;;;6.53;1.85;;;14.20;99.90;;;;;;5062097;28;20077;-81
2022/06/13 03:37:34;;;;;;;8.85;3.05;;;14.20;99.90;;;;;;5062095;28;20099;-81
2022/06/13 03:40:11;;;;;;;13.82;2.35;;;14.20;99.90;;;;;;5065868;28;20565;-81
2022/06/13 03:42:47;;;;;;;8.88;2.33;;;14.20;99.90;;;;;;5045418;28;20057;-82
2022/06/13 03:45:20;;;;;;;10.70;2.50;;;14.20;99.90;;;;;;5061482;28;20514;-81
2022/06/13 03:47:58;;;;;;;8.02;2.30;;;14.20;99.90;;;;;;5060259;28;20898;-81
2022/06/13 03:50:26;;;;;;;5.45;2.33;;;14.20;99.90;;;;;;5059383;28;20630;-81
2022/06/13 03:53:18;;;;;;;10.63;2.50;;;14.20;99.90;;;;;;5061502;28;20088;-82
2022/06/13 03:56:07;;;;;;;9.17;3.00;;;14.20;99.90;;;;;;5047870;28;21012;-81
2022/06/13 03:58:44;;;;;;;6.10;2.67;;;14.20;99.90;;;;;;5059056;28;20049;-81
2022/06/13 04:01:19;;;;;;;9.88;3.30;;;14.20;99.90;;;;;;5062246;28;20037;-81
2022/06/13 04:03:45;;;;;;;9.98;4.50;;;14.20;99.90;;;;;;5058026;28;20055;-80
2022/06/13 04:06:30;;;;;;;7.57;4.18;;;14.20;99.90;;;;;;5061510;28;20037;-80
2022/06/13 04:08:57;;;;;;;7.18;3.13;;;14.20;99.90;;;;;;5062087;28;20526;-80
2022/06/13 04:11:29;;;;;;;8.57;2.67;;;14.20;99.90;;;;;;5060171;28;20044;-80
2022/06/13 04:14:26;;;;;;;9.45;3.67;;;14.20;99.90;;;;;;5075453;27;20408;-81
2022/06/13 04:17:07;;;;;;;8.55;2.42;;;14.20;99.90;;;;;;5063341;28;20055;-81
2022/06/13 04:19:53;;;;;;;6.78;2.42;;;14.20;99.90;;;;;;5058668;28;20101;-85
2022/06/13 04:22:28;;;;;;;10.35;2.60;;;14.20;99.90;;;;;;5060824;28;20163;-81
2022/06/13 04:25:12;;;;;;;10.80;3.38;;;14.10;99.90;;;;;;5060747;28;20056;-81
2022/06/13 04:27:42;;;;;;;6.63;2.25;;;14.10;99.90;;;;;;5062431;28;20041;-81
2022/06/13 04:30:17;;;;;;;6.35;2.47;;;14.10;99.90;;;;;;5061377;28;20048;-81
2022/06/13 04:32:51;;;;;;;7.82;2.42;;;14.10;99.90;;;;;;5060385;28;20604;-81
2022/06/13 04:35:18;;;;;;;20.98;6.03;;;14.10;99.90;;;;;;5060653;28;20049;-81
2022/06/13 04:37:45;;;;;;;13.43;2.92;;;14.10;99.90;;;;;;5061213;28;20127;-81
2022/06/13 04:40:19;;;;;;;10.60;3.08;;;14.10;99.90;;;;;;5063131;28;20043;-81
2022/06/13 04:42:48;;;;;;;7.38;2.63;;;14.10;99.90;;;;;;5061314;28;20056;-81
2022/06/13 04:45:42;;;;;;;6.68;2.88;;;14.10;99.90;;;;;;5053979;28;20463;-79
2022/06/13 04:48:10;;;;;;;7.70;2.67;;;14.20;99.90;;;;;;5046892;28;20596;-81
2022/06/13 04:50:43;;;;;;;10.40;3.35;;;14.20;99.90;;;;;;5058342;28;20133;-80
2022/06/13 04:53:31;;;;;;;5.68;2.42;;;14.20;99.90;;;;;;5064410;28;20049;-80
2022/06/13 04:55:59;;;;;;;9.38;3.00;;;14.20;99.90;;;;;;5065360;28;20045;-80
2022/06/13 04:58:34;;;;;;;9.43;3.17;;;14.20;99.90;;;;;;5056760;28;20676;-80
2022/06/13 05:01:13;;;;;;;18.20;4.03;;;14.20;99.90;;;;;;5067652;28;20070;-79
2022/06/13 05:03:44;;;;;;;12.13;3.00;;;14.30;99.90;;;;;;5074247;28;20155;-79
2022/06/13 05:06:18;;;;;;;11.73;2.78;;;14.30;99.90;;;;;;5075121;28;20048;-81
2022/06/13 05:08:44;;;;;;;9.77;4.50;;;14.30;99.90;;;;;;5061185;28;20049;-82
2022/06/13 05:11:22;;;;;;;6.43;2.80;;;14.30;99.90;;;;;;5064008;28;20602;-82
2022/06/13 05:13:50;;;;;;;8.27;3.13;;;14.40;99.90;;;;;;5059316;28;20493;-81
2022/06/13 05:16:45;;;;;;;8.77;4.30;;;14.30;99.90;;;;;;5064408;28;20107;-82
2022/06/13 05:19:26;;;;;;;9.15;2.83;;;14.30;99.90;;;;;;5047720;28;20124;-82
2022/06/13 05:22:19;;;;;;;5.90;3.45;;;14.30;99.90;;;;;;5065187;28;20150;-82
2022/06/13 05:25:20;;;;;;;7.93;2.90;;;14.30;99.90;;;;;;5063539;28;20117;-83
2022/06/13 05:27:46;;;;;;;10.65;2.55;;;14.30;99.90;;;;;;5081958;28;20514;-83
2022/06/13 05:30:14;;;;;;;12.18;3.30;;;14.30;99.90;;;;;;5064218;28;20045;-83
2022/06/13 05:32:41;;;;;;;10.93;2.92;;;14.40;99.90;;;;;;5062200;28;20455;-83
2022/06/13 05:35:22;;;;;;;9.30;2.67;;;14.40;99.90;;;;;;5067078;28;20101;-96
2022/06/13 05:37:49;;;;;;;7.63;3.33;;;14.40;99.90;;;;;;5074465;28;20135;-84
2022/06/13 05:40:17;;;;;;;9.68;3.40;;;14.50;99.90;;;;;;5058417;28;20088;-82
2022/06/13 05:42:44;;;;;;;15.57;4.78;;;14.50;99.90;;;;;;5055103;28;20955;-82
2022/06/13 05:45:15;;;;;;;16.35;4.18;;;14.50;99.90;;;;;;5061085;28;20510;-82
2022/06/13 05:47:42;;;;;;;9.32;4.10;;;14.60;99.90;;;;;;5060293;28;20132;-81
2022/06/13 05:50:20;;;;;;;8.07;3.97;;;14.60;99.90;;;;;;5063957;28;20116;-81
2022/06/13 05:52:46;;;;;;;9.70;4.13;;;14.60;99.90;;;;;;5063817;28;20996;-82
2022/06/13 05:55:12;;;;;;;8.63;3.08;;;14.60;99.90;;;;;;5063493;28;20166;-82
2022/06/13 05:57:39;;;;;;;10.55;3.17;;;14.60;99.90;;;;;;5064865;28;20140;-82
2022/06/13 06:00:12;;;;;;;10.52;3.10;;;14.60;99.90;;;;;;5076967;28;20045;-82
2022/06/13 06:02:38;;;;;;;9.52;3.05;;;14.70;99.90;;;;;;5061505;28;20120;-82
2022/06/13 06:05:04;;;;;;;7.20;3.15;;;14.70;99.90;;;;;;5063552;28;20044;-81
2022/06/13 06:07:32;;;;;;;8.07;2.60;;;14.70;99.90;;;;;;5065917;28;20073;-81
2022/06/13 06:09:59;;;;;;;5.57;2.83;;;14.70;99.90;;;;;;5064099;28;20610;-81
2022/06/13 06:12:24;;;;;;;9.52;3.90;;;14.80;99.90;;;;;;5064423;28;20083;-81
2022/06/13 06:14:50;;;;;;;14.48;2.90;;;14.80;99.90;;;;;;5062420;28;20339;-80
2022/06/13 06:17:16;;;;;;;6.15;2.60;;;14.90;99.90;;;;;;5059017;28;20041;-79
2022/06/13 06:19:42;;;;;;;9.18;3.15;;;14.90;99.90;;;;;;5062600;28;20106;-81
2022/06/13 06:22:07;;;;;;;6.03;2.78;;;14.90;99.90;;;;;;5059509;28;21267;-80
2022/06/13 06:24:33;;;;;;;8.38;4.13;;;14.90;99.90;;;;;;5058517;28;20384;-81
2022/06/13 06:26:59;;;;;;;8.65;4.22;;;14.90;99.90;;;;;;5060345;28;20208;-80
2022/06/13 06:29:25;;;;;;;9.48;3.75;;;14.90;99.90;;;;;;5080257;28;20543;-81
2022/06/13 06:31:51;;;;;;;10.63;3.30;;;14.90;99.90;;;;;;5060091;28;20070;-80
2022/06/13 06:34:17;;;;;;;9.80;3.00;;;15.00;99.90;;;;;;5061859;28;20048;-81
2022/06/13 06:36:42;;;;;;;10.45;4.00;;;15.00;99.90;;;;;;5061646;28;20404;-80
2022/06/13 06:39:08;;;;;;;11.90;3.55;;;15.00;99.90;;;;;;5062038;28;20415;-81
2022/06/13 06:41:34;;;;;;;12.60;2.45;;;15.00;99.90;;;;;;5060984;28;20073;-81
2022/06/13 06:44:02;;;;;;;9.45;3.05;;;15.10;99.90;;;;;;5060949;28;20041;-80
2022/06/13 06:46:28;;;;;;;10.55;2.60;;;15.10;99.90;;;;;;5064573;28;20044;-80
2022/06/13 06:48:54;;;;;;;11.23;3.10;;;15.10;99.90;;;;;;5064521;28;20075;-81
2022/06/13 06:51:20;;;;;;;13.00;2.97;;;15.20;99.90;;;;;;5061460;28;20593;-81
2022/06/13 07:02:00;;;;;;;9.50;3.47;;;15.30;99.90;;;;;;5063954;28;20047;-80
2022/06/13 07:04:26;;;;;;;16.33;3.53;;;15.20;99.90;;;;;;5048091;28;20047;-80
2022/06/13 07:06:52;;;;;;;11.68;4.38;;;15.30;99.90;;;;;;5063840;28;20205;-84
2022/06/13 07:09:18;;;;;;;9.25;2.70;;;15.40;99.90;;;;;;5064046;28;20111;-81
2022/06/13 07:11:56;;;;;;;11.23;4.60;;;15.30;99.90;;;;;;5062956;28;20068;-81
2022/06/13 07:14:28;;;;;;;6.60;2.90;;;15.40;99.90;;;;;;5063512;28;20035;-81
2022/06/13 07:16:55;;;;;;;;;;;15.40;99.90;;;;;;5061016;28;20484;-81
2022/06/13 07:19:21;;;;;;;9.32;3.40;;;15.50;99.90;;;;;;5074812;28;20265;-81
2022/06/13 07:21:47;;;;;;;8.38;3.42;;;15.50;99.90;;;;;;5061363;28;20573;-81
2022/06/13 07:24:13;;;;;;;8.88;4.38;;;15.50;99.90;;;;;;5063951;28;20083;-80
2022/06/13 07:26:40;;;;;;;7.63;3.22;;;15.60;99.90;;;;;;5078985;28;20167;-80
2022/06/13 07:29:06;;;;;;;7.68;2.80;;;15.60;99.90;;;;;;5063278;28;20181;-80
2022/06/13 07:31:41;;;;;;;15.63;3.90;;;15.60;99.90;;;;;;5058851;28;20075;-81
2022/06/13 07:34:13;;;;;;;19.42;5.30;;;15.70;99.90;;;;;;5063389;28;20071;-80
2022/06/13 07:36:38;;;;;;;11.02;2.85;;;15.70;99.90;;;;;;5058672;28;20327;-81
2022/06/13 07:39:04;;;;;;;11.27;3.97;;;15.70;99.90;;;;;;5076288;28;20340;-80
2022/06/13 07:41:30;;;;;;;11.15;3.00;;;15.70;99.90;;;;;;5060393;28;20053;-80
2022/06/13 07:43:57;;;;;;;12.48;3.05;;;15.70;99.90;;;;;;5058635;28;20091;-80
2022/06/13 07:46:29;;;;;;;8.10;2.55;;;15.80;99.90;;;;;;5059968;28;20598;-81
2022/06/13 07:48:55;;;;;;;12.23;3.40;;;15.80;99.90;;;;;;5062382;28;20486;-81
2022/06/13 07:51:22;;;;;;;8.45;3.50;;;15.80;99.90;;;;;;5056445;28;20048;-82
2022/06/13 07:53:49;;;;;;;10.85;4.30;;;15.90;99.90;;;;;;5063288;28;20045;-81
2022/06/13 07:56:18;;;;;;;11.38;3.15;;;15.90;99.90;;;;;;5043154;28;20545;-80
2022/06/13 07:58:46;;;;;;;10.48;3.45;;;15.90;99.90;;;;;;5059993;28;20045;-81
2022/06/13 08:01:12;;;;;;;6.78;2.88;;;15.90;99.90;;;;;;5058201;28;20639;-81
2022/06/13 08:03:39;;;;;;;11.48;4.47;;;15.90;99.90;;;;;;5059871;28;20122;-81
2022/06/13 08:06:09;;;;;;;5.80;2.08;;;15.90;99.90;;;;;;5064098;28;20041;-81
2022/06/13 08:08:36;;;;;;;8.27;2.80;;;16.00;99.90;;;;;;5061387;28;20524;-81
2022/06/13 08:11:06;;;;;;;10.35;3.50;;;16.00;99.90;;;;;;5065300;28;20553;-81
2022/06/13 08:13:32;;;;;;;11.40;3.78;;;16.00;99.90;;;;;;5064567;28;20045;-81
2022/06/13 08:15:58;;;;;;;12.52;3.47;;;16.00;99.90;;;;;;5063096;28;20044;-81
2022/06/13 08:18:24;;;;;;;8.77;3.13;;;16.00;99.90;;;;;;5061887;28;20067;-80
2022/06/13 08:20:50;;;;;;;14.18;3.38;;;16.00;99.90;;;;;;5062437;28;20047;-80
2022/06/13 08:23:18;;;;;;;9.90;3.15;;;16.00;99.90;;;;;;5062350;28;20045;-81
2022/06/13 08:25:44;;;;;;;11.20;2.58;;;16.10;99.90;;;;;;5079463;27;20079;-81
2022/06/13 08:28:11;;;;;;;4.88;2.10;;;16.20;99.90;;;;;;5080130;28;20048;-80
2022/06/13 08:30:44;;;;;;;11.05;3.20;;;16.20;99.90;;;;;;5064224;28;20123;-80
2022/06/13 08:33:10;;;;;;;7.80;2.90;;;16.20;99.90;;;;;;5066641;28;20583;-81
2022/06/13 08:35:38;;;;;;;6.90;3.20;;;16.30;99.90;;;;;;5048686;28;20045;-80
2022/06/13 08:38:04;;;;;;;11.65;3.25;;;16.30;99.90;;;;;;5067926;28;20991;-81
2022/06/13 08:40:50;;;;;;;7.38;2.97;;;16.30;99.90;;;;;;5080850;28;20051;-80
2022/06/13 08:43:38;;;;;;;12.10;3.47;;;16.30;99.90;;;;;;5082496;28;20053;-81
2022/06/13 08:46:36;;;;;;;7.70;2.28;;;16.40;99.90;;;;;;5080937;28;20045;-80
2022/06/13 08:49:09;;;;;;;6.28;2.22;;;16.40;99.90;;;;;;5014746;28;20638;-81
2022/06/13 08:51:46;;;;;;;10.05;3.05;;;16.50;99.90;;;;;;5066411;28;20041;-80
2022/06/13 08:54:24;;;;;;;9.32;4.25;;;16.50;99.90;;;;;;5066637;28;20178;-80
2022/06/13 08:56:52;;;;;;;7.55;2.65;;;16.50;99.90;;;;;;5063354;28;20049;-80
2022/06/13 08:59:40;;;;;;;7.60;3.55;;;16.50;99.90;;;;;;5060062;28;20541;-80
2022/06/13 09:02:34;;;;;;;10.38;2.83;;;16.60;99.90;;;;;;5060826;28;20044;-81
2022/06/13 09:05:33;;;;;;;6.32;1.90;;;16.60;99.90;;;;;;5065902;28;20036;-81
2022/06/13 09:08:05;;;;;;;11.07;2.63;;;16.60;99.90;;;;;;5065695;28;20041;-81
2022/06/13 09:10:50;;;;;;;8.52;2.30;;;16.60;99.90;;;;;;5061959;28;20060;-81
2022/06/13 09:13:19;;;;;;;5.95;3.38;;;16.70;99.90;;;;;;5064988;28;20036;-81
2022/06/13 09:15:50;;;;;;;8.63;3.30;;;16.70;99.90;;;;;;5063500;28;20039;-81
2022/06/13 09:18:29;;;;;;;5.78;3.97;;;16.70;99.90;;;;;;5064618;28;20558;-81
2022/06/13 09:21:08;;;;;;;11.48;2.67;;;16.70;99.90;;;;;;5063655;28;20056;-81
2022/06/13 09:23:37;;;;;;;5.88;2.00;;;16.70;99.90;;;;;;5069981;28;20033;-82
2022/06/13 09:26:11;;;;;;;8.20;3.78;;;16.70;99.90;;;;;;5070879;28;20045;-81
2022/06/13 09:28:47;;;;;;;9.98;3.42;;;16.70;99.90;;;;;;5067278;28;20041;-81
2022/06/13 09:31:38;;;;;;;5.57;2.40;;;16.70;99.90;;;;;;5066928;28;20981;-81
2022/06/13 09:34:14;;;;;;;7.75;2.88;;;16.80;99.90;;;;;;5068154;28;20091;-81
2022/06/13 09:36:47;;;;;;;9.98;3.00;;;16.80;99.90;;;;;;5068349;28;20115;-81
2022/06/13 09:39:15;;;;;;;7.95;2.03;;;16.90;99.90;;;;;;5063315;28;20137;-81
2022/06/13 09:41:47;;;;;;;4.35;2.63;;;16.90;99.90;;;;;;5065318;28;20071;-81
2022/06/13 09:44:52;;;;;;;8.32;2.10;;;17.00;99.90;;;;;;5066893;28;20048;-81
2022/06/13 09:47:30;;;;;;;9.95;3.17;;;17.00;99.90;;;;;;5050044;28;20500;-81
2022/06/13 09:50:11;;;;;;;6.57;3.15;;;17.10;99.90;;;;;;5062403;28;20128;-81
2022/06/13 09:53:00;;;;;;;6.43;2.65;;;17.10;99.90;;;;;;5062807;28;20073;-81
2022/06/13 09:55:30;;;;;;;5.70;2.10;;;17.10;99.90;;;;;;5063540;28;20028;-81
2022/06/13 09:58:08;;;;;;;9.32;3.17;;;17.10;99.90;;;;;;5062834;28;20036;-81
2022/06/13 10:00:46;;;;;;;8.65;2.47;;;17.20;99.90;;;;;;5080559;28;20100;-81
2022/06/13 10:03:36;;;;;;;8.52;2.88;;;17.10;99.90;;;;;;5064303;28;20045;-80
2022/06/13 10:06:20;;;;;;;4.55;2.15;;;17.20;99.90;;;;;;5063608;28;20095;-81
2022/06/13 10:09:12;;;;;;;13.98;2.55;;;17.20;99.90;;;;;;5062332;28;20037;-81
2022/06/13 10:12:08;;;;;;;9.40;2.83;;;17.20;99.90;;;;;;5078228;28;20041;-81
2022/06/13 10:14:36;;;;;;;6.85;3.35;;;17.20;99.90;;;;;;5062642;28;20040;-81
2022/06/13 10:17:36;;;;;;;9.07;3.17;;;17.20;99.90;;;;;;5063732;28;20478;-81
2022/06/13 10:20:11;;;;;;;4.10;2.33;;;17.30;99.90;;;;;;5079137;28;20047;-81
2022/06/13 10:22:59;;;;;;;7.72;2.30;;;17.30;99.90;;;;;;5062757;28;20498;-81
2022/06/13 10:25:34;;;;;;;6.07;2.17;;;17.40;99.90;;;;;;5064370;28;20041;-81
2022/06/13 10:28:34;;;;;;;6.70;2.10;;;17.50;99.90;;;;;;5064633;28;20037;-81
2022/06/13 10:31:19;;;;;;;9.98;3.88;;;17.50;99.90;;;;;;5064666;28;20052;-81
2022/06/13 10:34:20;;;;;;;6.32;2.70;;;17.50;99.90;;;;;;5063586;28;20049;-82
2022/06/13 10:36:54;;;;;;;7.72;2.83;;;17.50;99.90;;;;;;4980625;28;20230;-82
2022/06/13 10:39:22;;;;;;;9.18;2.00;;;17.50;99.90;;;;;;5056592;28;20044;-82
2022/06/13 10:41:53;;;;;;;4.57;2.03;;;17.50;99.90;;;;;;5076569;28;20048;-81
2022/06/13 10:44:19;;;;;;;8.63;2.47;;;17.60;99.90;;;;;;5061559;28;20709;-81
2022/06/13 10:46:49;;;;;;;5.82;2.50;;;17.60;99.90;;;;;;5060941;28;20791;-82
2022/06/13 10:49:36;;;;;;;6.45;3.08;;;17.60;99.90;;;;;;5061429;28;20041;-82
2022/06/13 10:52:17;;;;;;;6.38;3.22;;;17.60;99.90;;;;;;5065377;28;20050;-82
2022/06/13 10:54:51;;;;;;;7.80;4.87;;;17.60;99.90;;;;;;5062851;28;20044;-81
2022/06/13 10:57:43;;;;;;;4.00;2.10;;;17.70;99.90;;;;;;5062921;28;20036;-81
2022/06/13 11:00:22;;;;;;;8.73;2.28;;;17.60;99.90;;;;;;5061354;28;20611;-82
2022/06/13 11:02:49;;;;;;;18.15;4.18;;;17.70;99.90;;;;;;5060843;28;20055;-82
2022/06/13 11:05:19;;;;;;;7.38;2.75;;;17.70;99.90;;;;;;5060756;28;20051;-82
2022/06/13 11:08:05;;;;;;;6.88;2.10;;;17.80;99.90;;;;;;5064247;28;20584;-85
2022/06/13 11:10:40;;;;;;;6.00;2.20;;;17.80;99.90;;;;;;5060236;28;20080;-82
2022/06/13 11:13:16;;;;;;;6.72;3.63;;;17.90;99.90;;;;;;5076235;28;20075;-81
2022/06/13 11:24:53;;;;;;;7.90;3.92;;;18.00;99.90;;;;;;5061964;28;20040;-82
2022/06/13 11:27:40;;;;;;;7.82;2.08;;;18.00;99.90;;;;;;5060590;28;21344;-82
2022/06/13 11:30:29;;;;;;;10.40;2.95;;;18.00;99.90;;;;;;5061056;28;20124;-82
2022/06/13 11:33:08;;;;;;;5.47;1.88;;;18.10;99.90;;;;;;5061378;28;20040;-82
2022/06/13 11:36:10;;;;;;;15.38;3.38;;;18.10;99.90;;;;;;5062502;28;20044;-82
2022/06/13 11:38:49;;;;;;;7.72;2.42;;;18.20;99.90;;;;;;5053412;28;20048;-82
2022/06/13 11:41:39;;;;;;;6.63;2.13;;;18.20;99.90;;;;;;5060865;28;20083;-82
2022/06/13 11:44:10;;;;;;;5.50;2.10;;;18.20;99.90;;;;;;5064388;28;20045;-82
2022/06/13 11:46:44;;;;;;;5.63;1.98;;;18.20;99.90;;;;;;5064480;28;20045;-82
2022/06/13 11:49:16;;;;;;;3.90;1.88;;;18.30;99.90;;;;;;5063132;28;20504;-82
2022/06/13 11:51:48;;;;;;;;;;;18.30;99.90;;;;;;5064647;28;20458;-82
2022/06/13 11:54:40;;;;;;;7.47;2.72;;;18.30;99.40;;;;;;5065650;28;19921;-82
2022/06/13 11:57:15;;;;;;;13.60;3.08;;;18.30;99.70;;;;;;5079755;28;20072;-82
2022/06/13 11:59:53;;;;;;;6.70;2.05;;;18.30;99.40;;;;;;5062604;28;20613;-82
2022/06/13 12:02:24;;;;;;;5.53;1.35;;;18.30;99.00;;;;;;5063096;28;20411;-82
2022/06/13 12:04:56;;;;;;;4.35;1.67;;;18.30;99.00;;;;;;5064489;28;20040;-82
2022/06/13 12:07:28;;;;;;;7.70;3.13;;;18.40;98.80;;;;;;5063754;28;20041;-83
2022/06/13 12:09:57;;;;;;;4.38;2.03;;;18.40;98.80;;;;;;5063351;28;20596;-82
2022/06/13 12:12:41;;;;;;;4.10;1.83;;;18.50;98.70;;;;;;5063475;28;20072;-82
2022/06/13 12:15:12;;;;;;;8.15;2.70;;;18.50;98.20;;;;;;5062697;28;20041;-82
2022/06/13 12:17:44;;;;;;;4.47;1.90;;;18.50;97.90;;;;;;5062522;28;20096;-81
2022/06/13 12:20:18;;;;;;;4.90;2.40;;;18.60;97.60;;;;;;5063236;28;20099;-83
2022/06/13 12:23:01;;;;;;;4.35;1.83;;;18.60;97.30;;;;;;5062888;28;20616;-82
2022/06/13 12:25:38;;;;;;;4.78;2.92;;;18.60;97.30;;;;;;5065430;28;20208;-82
2022/06/13 12:28:10;;;;;;;8.02;1.67;;;18.60;97.10;;;;;;5060901;28;20033;-82
2022/06/13 12:30:58;;;;;;;3.78;1.45;;;18.60;97.00;;;;;;5065964;28;20044;-82
2022/06/13 12:33:24;;;;;;;8.30;2.13;;;18.60;96.80;;;;;;5080670;28;20065;-82
2022/06/13 12:36:01;;;;;;;6.95;2.13;;;18.70;96.60;;;;;;5065450;28;20120;-83
2022/06/13 12:38:50;;;;;;;5.72;2.00;;;18.80;96.30;;;;;;5064069;28;20282;-82
2022/06/13 12:41:19;;;;;;;7.97;2.45;;;18.80;96.20;;;;;;5062742;28;20426;-82
2022/06/13 12:44:07;;;;;;;4.68;2.00;;;18.80;96.10;;;;;;5078751;28;20485;-82
2022/06/13 12:46:54;;;;;;;3.95;1.63;;;18.90;96.10;;;;;;5080124;28;20044;-82
2022/06/13 12:49:34;;;;;;;4.32;1.90;;;18.90;96.10;;;;;;5064525;28;20045;-82
2022/06/13 12:52:14;;;;;;;6.55;2.25;;;18.90;96.10;;;;;;5079401;28;20045;-83
2022/06/13 12:55:04;;;;;;;7.13;2.05;;;18.90;96.10;;;;;;5063873;28;20128;-82
2022/06/13 12:57:53;;;;;;;4.22;1.70;;;19.00;96.00;;;;;;5062607;28;20045;-81
2022/06/13 13:00:26;;;;;;;6.80;2.17;;;19.00;95.80;;;;;;5079612;28;20075;-82
2022/06/13 13:03:17;;;;;;;5.07;2.45;;;19.00;95.70;;;;;;5079209;28;20048;-81
2022/06/13 13:06:01;;;;;;;11.13;3.17;;;19.00;95.50;;;;;;5064119;28;20639;-82
2022/06/13 13:08:43;;;;;;;6.45;2.28;;;19.00;95.40;;;;;;5064575;28;20048;-82
2022/06/13 13:11:28;;;;;;;4.65;2.70;;;19.00;95.40;;;;;;5080959;27;20040;-82
2022/06/13 13:14:18;;;;;;;8.10;2.65;;;19.20;95.50;;;;;;5065001;28;20111;-81
2022/06/13 13:16:48;;;;;;;7.45;2.30;;;19.30;95.30;;;;;;5066721;28;20037;-82
2022/06/13 13:19:19;;;;;;;7.35;1.63;;;19.20;95.10;;;;;;5080942;28;20064;-82
2022/06/13 13:22:00;;;;;;;7.28;2.75;;;19.30;95.20;;;;;;5068828;28;20044;-82
2022/06/13 13:24:33;;;;;;;4.53;2.58;;;19.30;95.20;;;;;;5084225;28;20872;-82
2022/06/13 13:27:09;;;;;;;6.97;3.00;;;19.40;95.00;;;;;;5068878;28;20111;-82
2022/06/13 13:29:51;;;;;;;9.35;3.08;;;19.40;95.00;;;;;;5069086;28;20539;-82
2022/06/13 13:32:48;;;;;;;3.42;1.75;;;19.40;94.80;;;;;;5084005;28;20039;-82
2022/06/13 13:35:33;;;;;;;6.07;1.83;;;19.40;94.80;;;;;;5003039;28;20102;-82
2022/06/13 13:38:30;;;;;;;6.78;2.67;;;19.40;94.40;;;;;;5080739;28;20040;-82
2022/06/13 13:41:04;;;;;;;8.73;2.58;;;19.40;94.20;;;;;;5082781;28;20045;-82
2022/06/13 13:43:37;;;;;;;5.93;2.40;;;19.50;94.00;;;;;;5066596;28;20052;-83
2022/06/13 13:46:15;;;;;;;6.85;1.80;;;19.50;93.90;;;;;;5048590;28;20522;-81